createdAt,value
2023-04-18T00:00:10.807Z,11.96
2023-04-18T00:02:39.861Z,11.97
2023-04-18T00:05:08.329Z,11.97
2023-04-18T00:07:35.695Z,11.99
2023-04-18T00:10:04.045Z,12.01
2023-04-18T00:12:34.331Z,12.04
2023-04-18T00:15:02.370Z,11.97
2023-04-18T00:17:30.494Z,11.93
2023-04-18T00:19:58.422Z,11.93
2023-04-18T00:22:25.643Z,11.96
2023-04-18T00:24:52.812Z,11.90
2023-04-18T00:27:20.576Z,11.80
2023-04-18T00:29:48.258Z,11.73
2023-04-18T00:32:16.726Z,11.82
2023-04-18T00:34:44.203Z,11.83
2023-04-18T00:37:12.815Z,11.78
2023-04-18T00:39:42.234Z,11.76
2023-04-18T00:42:09.783Z,11.81
2023-04-18T00:44:37.119Z,11.71
2023-04-18T00:47:04.276Z,11.71
2023-04-18T00:49:32.625Z,11.77
2023-04-18T00:52:00.440Z,11.81
2023-04-18T00:54:28.356Z,11.77
2023-04-18T00:56:56.227Z,11.83
2023-04-18T00:59:23.531Z,11.82
2023-04-18T01:01:50.667Z,11.81
2023-04-18T01:04:18.169Z,11.74
2023-04-18T01:06:45.653Z,11.74
2023-04-18T01:09:13.994Z,11.62
2023-04-18T01:11:41.431Z,11.66
2023-04-18T01:14:09.421Z,11.70
2023-04-18T01:16:40.073Z,11.69
2023-04-18T01:19:07.568Z,11.76
2023-04-18T01:21:37.211Z,11.63
2023-04-18T01:24:08.546Z,11.62
2023-04-18T01:26:36.385Z,11.64
2023-04-18T01:29:05.764Z,11.66
2023-04-18T01:31:40.191Z,11.64
2023-04-18T01:34:08.305Z,11.69
2023-04-18T01:36:36.628Z,11.70
2023-04-18T01:39:03.983Z,11.67
2023-04-18T01:41:32.841Z,11.70
2023-04-18T01:44:00.748Z,11.68
2023-04-18T01:46:28.818Z,11.67
2023-04-18T01:48:57.289Z,11.58
2023-04-18T01:51:24.400Z,11.62
2023-04-18T01:53:53.664Z,11.72
2023-04-18T01:56:21.182Z,11.70
2023-04-18T01:58:48.405Z,11.62
2023-04-18T02:01:15.599Z,11.54
2023-04-18T02:03:43.415Z,11.65
2023-04-18T02:06:13.127Z,11.54
2023-04-18T02:08:40.531Z,11.48
2023-04-18T02:11:07.928Z,11.43
2023-04-18T02:13:35.324Z,11.43
2023-04-18T02:16:12.674Z,11.41
2023-04-18T02:18:43.878Z,11.36
2023-04-18T02:21:11.906Z,11.31
2023-04-18T02:23:38.965Z,11.34
2023-04-18T02:26:06.554Z,11.29
2023-04-18T02:28:34.221Z,11.32
2023-04-18T02:31:03.516Z,11.30
2023-04-18T02:33:30.718Z,11.30
2023-04-18T02:35:58.172Z,11.27
2023-04-18T02:38:25.277Z,11.21
2023-04-18T02:40:52.452Z,11.27
2023-04-18T02:43:20.806Z,11.27
2023-04-18T02:45:47.892Z,11.31
2023-04-18T02:48:15.182Z,11.28
2023-04-18T02:50:43.858Z,11.36
2023-04-18T02:53:10.954Z,11.38
2023-04-18T02:55:39.462Z,11.33
2023-04-18T02:58:06.841Z,11.25
2023-04-18T03:00:36.840Z,11.39
2023-04-18T03:03:05.603Z,11.37
2023-04-18T03:05:33.837Z,11.42
2023-04-18T03:08:02.101Z,11.45
2023-04-18T03:10:29.743Z,11.40
2023-04-18T03:12:57.249Z,11.34
2023-04-18T03:15:24.837Z,11.38
2023-04-18T03:17:52.749Z,11.39
2023-04-18T03:20:21.022Z,11.51
2023-04-18T03:22:48.232Z,11.44
2023-04-18T03:25:18.307Z,11.40
2023-04-18T03:27:45.828Z,11.34
2023-04-18T03:30:13.472Z,11.21
2023-04-18T03:32:42.264Z,11.14
2023-04-18T03:35:09.904Z,11.13
2023-04-18T03:37:37.227Z,11.03
2023-04-18T03:40:08.104Z,11.00
2023-04-18T03:42:36.309Z,11.09
2023-04-18T03:45:03.695Z,11.20
2023-04-18T03:47:32.185Z,11.19
2023-04-18T03:49:59.923Z,11.18
2023-04-18T03:52:29.215Z,11.05
2023-04-18T03:54:57.168Z,11.09
2023-04-18T03:57:24.900Z,11.07
2023-04-18T03:59:51.992Z,11.14
2023-04-18T04:02:19.320Z,11.08
2023-04-18T04:04:47.026Z,11.07
2023-04-18T04:07:14.343Z,11.04
2023-04-18T04:09:42.276Z,11.10
2023-04-18T04:12:09.669Z,11.19
2023-04-18T04:14:37.237Z,11.23
2023-04-18T04:17:04.557Z,11.19
2023-04-18T04:19:32.995Z,11.18
2023-04-18T04:22:01.430Z,11.21
2023-04-18T04:24:30.712Z,11.27
2023-04-18T04:26:58.894Z,11.25
2023-04-18T04:29:27.014Z,11.24
2023-04-18T04:31:54.201Z,11.29
2023-04-18T04:34:21.967Z,11.23
2023-04-18T04:36:49.150Z,11.30
2023-04-18T04:39:17.431Z,11.24
2023-04-18T04:41:47.165Z,11.33
2023-04-18T04:44:18.557Z,11.32
2023-04-18T04:46:45.910Z,11.27
2023-04-18T04:49:14.326Z,11.31
2023-04-18T04:51:43.012Z,11.32
2023-04-18T04:54:10.832Z,11.32
2023-04-18T04:56:38.119Z,11.32
2023-04-18T04:59:06.007Z,11.39
2023-04-18T05:01:33.953Z,11.36
2023-04-18T05:04:01.202Z,11.42
2023-04-18T05:06:28.671Z,11.45
2023-04-18T05:08:57.554Z,11.47
2023-04-18T05:11:24.647Z,11.49
2023-04-18T05:13:51.988Z,11.49
2023-04-18T05:16:19.522Z,11.47
2023-04-18T05:18:47.024Z,11.53
2023-04-18T05:21:14.128Z,11.53
2023-04-18T05:23:41.567Z,11.51
2023-04-18T05:26:08.794Z,11.45
2023-04-18T05:28:35.911Z,11.54
2023-04-18T05:31:03.398Z,11.55
2023-04-18T05:33:31.702Z,11.51
2023-04-18T05:35:59.216Z,11.46
2023-04-18T05:38:26.660Z,11.45
2023-04-18T05:40:55.774Z,11.46
2023-04-18T05:43:23.432Z,11.40
2023-04-18T05:45:52.606Z,11.39
2023-04-18T05:48:20.065Z,11.46
2023-04-18T05:50:47.185Z,11.40
2023-04-18T05:53:14.696Z,11.35
2023-04-18T05:55:41.939Z,11.47
2023-04-18T05:58:09.100Z,11.46
2023-04-18T06:00:36.774Z,11.54
2023-04-18T06:03:04.458Z,11.61
2023-04-18T06:05:32.064Z,11.74
2023-04-18T06:07:59.311Z,11.74
2023-04-18T06:10:26.836Z,11.84
2023-04-18T06:12:53.923Z,11.85
2023-04-18T06:15:21.076Z,11.88
2023-04-18T06:17:48.541Z,11.95
2023-04-18T06:20:15.786Z,12.01
2023-04-18T06:22:42.899Z,12.15
2023-04-18T06:25:10.388Z,12.27
2023-04-18T06:27:38.585Z,12.43
2023-04-18T06:30:07.726Z,12.62
2023-04-18T06:32:35.436Z,12.66
2023-04-18T06:35:02.796Z,12.89
2023-04-18T06:37:29.972Z,13.06
2023-04-18T06:39:57.345Z,13.08
2023-04-18T06:42:24.499Z,13.00
2023-04-18T06:44:51.549Z,13.15
2023-04-18T06:47:19.168Z,13.25
2023-04-18T06:49:46.374Z,13.38
2023-04-18T06:52:13.564Z,13.59
2023-04-18T06:54:40.991Z,13.68
2023-04-18T06:57:08.144Z,13.77
2023-04-18T06:59:35.809Z,13.93
2023-04-18T07:02:03.367Z,14.02
2023-04-18T07:04:30.670Z,14.00
2023-04-18T07:06:57.850Z,14.15
2023-04-18T07:09:25.344Z,14.39
2023-04-18T07:11:52.962Z,14.46
2023-04-18T07:14:24.494Z,14.56
2023-04-18T07:16:52.244Z,14.81
2023-04-18T07:19:19.508Z,14.96
2023-04-18T07:21:46.875Z,15.10
2023-04-18T07:24:14.604Z,15.11
2023-04-18T07:26:41.994Z,15.12
2023-04-18T07:29:09.096Z,15.15
2023-04-18T07:31:36.643Z,15.05
2023-04-18T07:34:03.812Z,14.95
2023-04-18T07:36:31.359Z,14.86
2023-04-18T07:38:58.713Z,14.86
2023-04-18T07:41:25.766Z,15.00
2023-04-18T07:43:52.754Z,15.12
2023-04-18T07:46:20.164Z,15.06
2023-04-18T07:48:47.305Z,14.99
2023-04-18T07:51:14.376Z,15.02
2023-04-18T07:53:43.388Z,15.40
2023-04-18T07:56:12.556Z,15.91
2023-04-18T07:58:39.591Z,16.39
2023-04-18T08:01:07.802Z,16.63
2023-04-18T08:03:36.429Z,16.43
2023-04-18T08:06:03.860Z,16.30
2023-04-18T08:08:31.004Z,16.20
2023-04-18T08:10:58.449Z,16.37
2023-04-18T08:13:25.519Z,16.20
2023-04-18T08:15:52.753Z,16.14
2023-04-18T08:18:20.197Z,16.09
2023-04-18T08:20:47.270Z,15.82
2023-04-18T08:23:15.193Z,15.82
2023-04-18T08:25:42.880Z,15.97
2023-04-18T08:28:10.006Z,16.48
2023-04-18T08:30:37.198Z,16.85
2023-04-18T08:33:04.647Z,17.10
2023-04-18T08:35:31.772Z,17.35
2023-04-18T08:37:58.833Z,17.38
2023-04-18T08:40:26.170Z,16.97
2023-04-18T08:42:54.082Z,16.77
2023-04-18T08:45:21.304Z,16.93
2023-04-18T08:47:48.656Z,17.05
2023-04-18T08:50:17.286Z,17.24
2023-04-18T08:52:48.850Z,17.27
2023-04-18T08:55:16.506Z,17.36
2023-04-18T08:57:44.743Z,17.60
2023-04-18T09:00:12.397Z,18.09
2023-04-18T09:02:45.122Z,18.54
2023-04-18T09:05:19.022Z,18.35
2023-04-18T09:07:47.767Z,18.22
2023-04-18T09:10:32.893Z,18.48
2023-04-18T09:13:03.153Z,18.17
2023-04-18T09:15:30.949Z,17.94
2023-04-18T09:18:00.437Z,18.00
2023-04-18T09:20:35.937Z,17.87
2023-04-18T09:23:16.299Z,17.98
2023-04-18T09:25:48.624Z,18.62
2023-04-18T09:28:27.988Z,19.05
2023-04-18T09:30:57.460Z,19.03
2023-04-18T09:33:32.964Z,19.06
2023-04-18T09:36:22.638Z,18.96
2023-04-18T09:38:53.698Z,18.92
2023-04-18T09:41:23.270Z,19.05
2023-04-18T09:43:50.640Z,19.29
2023-04-18T09:46:17.976Z,19.38
2023-04-18T09:48:45.653Z,19.42
2023-04-18T09:51:16.637Z,19.09
2023-04-18T09:53:45.193Z,19.05
2023-04-18T09:56:23.857Z,18.81
2023-04-18T09:58:56.479Z,18.57
2023-04-18T10:01:28.350Z,18.32
2023-04-18T10:03:57.387Z,18.26
2023-04-18T10:06:27.376Z,18.00
2023-04-18T10:08:55.359Z,17.84
2023-04-18T10:11:24.305Z,17.90
2023-04-18T10:13:55.923Z,17.96
2023-04-18T10:16:24.028Z,18.05
2023-04-18T10:18:51.661Z,17.98
2023-04-18T10:21:18.721Z,18.12
2023-04-18T10:23:48.881Z,18.32
2023-04-18T10:26:16.295Z,18.51
2023-04-18T10:28:53.482Z,18.95
2023-04-18T10:31:22.948Z,19.38
2023-04-18T10:34:04.020Z,19.62
2023-04-18T10:36:33.464Z,19.42
2023-04-18T10:39:20.984Z,19.19
2023-04-18T10:41:50.722Z,18.96
2023-04-18T10:44:18.505Z,19.31
2023-04-18T10:46:48.612Z,19.77
2023-04-18T10:49:17.088Z,20.29
2023-04-18T10:51:49.528Z,20.38
2023-04-18T10:54:32.826Z,20.18
2023-04-18T10:57:01.878Z,19.62
2023-04-18T10:59:31.300Z,19.40
2023-04-18T11:01:58.252Z,19.32
2023-04-18T11:04:25.840Z,19.25
2023-04-18T11:06:58.379Z,18.91
2023-04-18T11:09:26.050Z,18.77
2023-04-18T11:12:08.910Z,18.61
2023-04-18T11:14:42.945Z,18.73
2023-04-18T11:17:20.645Z,18.87
2023-04-18T11:19:48.314Z,19.01
2023-04-18T11:22:16.232Z,19.24
2023-04-18T11:24:43.925Z,19.35
2023-04-18T11:27:12.669Z,19.00
2023-04-18T11:29:39.951Z,18.64
2023-04-18T11:32:10.221Z,18.56
2023-04-18T11:34:37.333Z,18.46
2023-04-18T11:37:08.277Z,18.46
2023-04-18T11:39:43.222Z,18.39
2023-04-18T11:42:10.704Z,18.23
2023-04-18T11:44:39.958Z,18.06
2023-04-18T11:47:29.023Z,17.97
2023-04-18T11:50:00.580Z,17.90
2023-04-18T11:52:29.296Z,17.96
2023-04-18T11:54:58.287Z,17.88
2023-04-18T11:57:30.031Z,17.72
2023-04-18T12:00:01.158Z,17.65
2023-04-18T12:02:38.881Z,17.51
2023-04-18T12:05:07.091Z,17.35
2023-04-18T12:07:42.472Z,17.39
2023-04-18T12:10:24.482Z,17.52
2023-04-18T12:12:53.704Z,17.81
2023-04-18T12:15:27.267Z,18.02
2023-04-18T12:18:00.442Z,18.34
2023-04-18T12:20:39.590Z,18.72
2023-04-18T12:23:06.887Z,18.98
2023-04-18T12:25:35.269Z,19.14
2023-04-18T12:28:13.521Z,19.27
2023-04-18T12:30:41.851Z,19.15
2023-04-18T12:33:11.625Z,18.86
2023-04-18T12:35:38.626Z,18.54
2023-04-18T12:38:06.054Z,18.41
2023-04-18T12:40:33.282Z,18.28
2023-04-18T12:43:02.916Z,18.05
2023-04-18T12:45:31.090Z,18.07
2023-04-18T12:47:58.410Z,17.99
2023-04-18T12:50:26.585Z,18.03
2023-04-18T12:52:55.734Z,18.27
2023-04-18T12:55:22.945Z,18.56
2023-04-18T12:57:52.228Z,18.87
2023-04-18T13:00:19.525Z,19.02
2023-04-18T13:02:46.741Z,19.20
2023-04-18T13:05:16.099Z,19.25
2023-04-18T13:07:44.075Z,19.15
2023-04-18T13:10:13.126Z,18.97
2023-04-18T13:12:42.175Z,18.82
2023-04-18T13:15:10.077Z,18.56
2023-04-18T13:17:38.757Z,18.47
2023-04-18T13:20:09.054Z,18.43
2023-04-18T13:22:37.344Z,18.42
2023-04-18T13:25:05.782Z,18.32
2023-04-18T13:27:32.906Z,18.39
2023-04-18T13:30:00.368Z,18.28
2023-04-18T13:32:27.572Z,18.37
2023-04-18T13:34:56.105Z,18.47
2023-04-18T13:37:24.274Z,18.47
2023-04-18T13:39:51.429Z,18.45
2023-04-18T13:42:19.404Z,18.35
2023-04-18T13:44:47.659Z,18.20
2023-04-18T13:47:14.833Z,18.06
2023-04-18T13:49:41.960Z,17.87
2023-04-18T13:52:09.354Z,17.59
2023-04-18T13:54:37.613Z,17.45
2023-04-18T13:57:06.987Z,17.29
2023-04-18T13:59:34.335Z,17.15
2023-04-18T14:02:01.577Z,17.20
2023-04-18T14:04:29.560Z,17.42
2023-04-18T14:06:56.869Z,17.91
2023-04-18T14:09:24.066Z,18.24
2023-04-18T14:11:51.654Z,18.42
2023-04-18T14:14:18.876Z,18.55
2023-04-18T14:16:46.167Z,18.63
2023-04-18T14:19:13.926Z,18.61
2023-04-18T14:21:41.265Z,18.71
2023-04-18T14:24:08.569Z,18.84
2023-04-18T14:26:36.038Z,18.87
2023-04-18T14:29:05.075Z,18.69
2023-04-18T14:31:32.276Z,18.63
2023-04-18T14:33:59.782Z,18.55
2023-04-18T14:36:27.211Z,18.46
2023-04-18T14:38:55.155Z,18.41
2023-04-18T14:41:22.642Z,18.27
2023-04-18T14:43:49.765Z,18.21
2023-04-18T14:46:17.087Z,18.25
2023-04-18T14:48:46.395Z,18.19
2023-04-18T14:51:15.787Z,18.11
2023-04-18T14:53:43.300Z,18.09
2023-04-18T14:56:10.758Z,18.15
2023-04-18T14:58:37.881Z,18.23
2023-04-18T15:01:05.599Z,18.30
2023-04-18T15:03:33.395Z,18.33
2023-04-18T15:06:00.732Z,18.23
2023-04-18T15:08:27.961Z,18.33
2023-04-18T15:10:55.358Z,18.30
2023-04-18T15:13:22.614Z,18.12
2023-04-18T15:15:53.466Z,18.03
2023-04-18T15:18:21.247Z,17.97
2023-04-18T15:20:48.453Z,17.84
2023-04-18T15:23:16.008Z,17.78
2023-04-18T15:25:45.202Z,17.73
2023-04-18T15:28:13.679Z,17.84
2023-04-18T15:30:40.884Z,17.84
2023-04-18T15:33:08.629Z,18.00
2023-04-18T15:35:36.076Z,18.02
2023-04-18T15:38:03.241Z,18.12
2023-04-18T15:40:32.912Z,18.08
2023-04-18T15:43:00.196Z,17.98
2023-04-18T15:45:27.225Z,17.88
2023-04-18T15:47:54.646Z,17.88
2023-04-18T15:50:23.724Z,17.87
2023-04-18T15:52:50.726Z,17.82
2023-04-18T15:55:18.038Z,17.77
2023-04-18T15:57:45.103Z,17.67
2023-04-18T16:00:16.121Z,17.63
2023-04-18T16:02:44.923Z,17.65
2023-04-18T16:05:12.822Z,17.49
2023-04-18T16:07:40.513Z,17.31
2023-04-18T16:10:10.311Z,17.10
2023-04-18T16:12:39.016Z,16.91
2023-04-18T16:15:08.439Z,16.76
2023-04-18T16:17:37.484Z,16.73
2023-04-18T16:20:06.285Z,16.67
2023-04-18T16:22:33.612Z,16.62
2023-04-18T16:25:01.038Z,16.55
2023-04-18T16:27:28.496Z,16.58
2023-04-18T16:29:55.816Z,16.61
2023-04-18T16:32:23.291Z,16.70
2023-04-18T16:34:50.627Z,16.73
2023-04-18T16:37:17.683Z,16.65
2023-04-18T16:39:45.126Z,16.64
2023-04-18T16:42:14.830Z,16.67
2023-04-18T16:44:43.983Z,16.67
2023-04-18T16:47:11.375Z,16.56
2023-04-18T16:49:38.936Z,16.53
2023-04-18T16:52:06.136Z,16.39
2023-04-18T16:54:33.594Z,16.35
2023-04-18T16:57:02.118Z,16.21
2023-04-18T16:59:29.127Z,16.03
2023-04-18T17:01:56.531Z,16.07
2023-04-18T17:04:26.772Z,15.86
2023-04-18T17:06:54.140Z,15.80
2023-04-18T17:09:21.649Z,15.71
2023-04-18T17:11:49.362Z,15.57
2023-04-18T17:14:17.452Z,15.52
2023-04-18T17:16:44.999Z,15.30
2023-04-18T17:19:12.328Z,15.21
2023-04-18T17:21:39.536Z,15.06
2023-04-18T17:24:07.350Z,14.92
2023-04-18T17:26:35.796Z,14.78
2023-04-18T17:29:04.197Z,14.72
2023-04-18T17:31:32.322Z,14.57
2023-04-18T17:34:00.670Z,14.59
2023-04-18T17:36:27.814Z,14.47
2023-04-18T17:38:55.832Z,14.42
2023-04-18T17:41:23.236Z,14.29
2023-04-18T17:43:53.388Z,14.17
2023-04-18T17:46:20.976Z,14.08
2023-04-18T17:48:48.300Z,14.04
2023-04-18T17:51:19.330Z,14.02
2023-04-18T17:53:46.824Z,14.03
2023-04-18T17:56:13.882Z,13.99
2023-04-18T17:58:41.234Z,13.92
2023-04-18T18:01:19.662Z,13.83
2023-04-18T18:03:48.312Z,13.83
2023-04-18T18:06:15.653Z,13.88
2023-04-18T18:08:43.515Z,13.88
2023-04-18T18:11:11.093Z,13.84
2023-04-18T18:13:41.274Z,13.75
2023-04-18T18:16:09.009Z,13.66
2023-04-18T18:18:37.280Z,13.60
2023-04-18T18:21:04.640Z,13.57
2023-04-18T18:23:31.918Z,13.51
2023-04-18T18:25:59.408Z,13.46
2023-04-18T18:28:26.538Z,13.38
2023-04-18T18:30:54.003Z,13.23
2023-04-18T18:33:21.344Z,13.08
2023-04-18T18:35:48.401Z,13.05
2023-04-18T18:38:15.457Z,12.95
2023-04-18T18:40:42.807Z,12.83
2023-04-18T18:43:09.813Z,12.78
2023-04-18T18:45:38.370Z,12.67
2023-04-18T18:48:07.374Z,12.61
2023-04-18T18:50:36.399Z,12.60
2023-04-18T18:53:06.212Z,12.55
2023-04-18T18:55:33.657Z,12.54
2023-04-18T18:58:00.794Z,12.49
2023-04-18T19:00:27.977Z,12.58
2023-04-18T19:02:55.460Z,12.49
2023-04-18T19:05:22.633Z,12.41
2023-04-18T19:07:51.404Z,12.37
2023-04-18T19:10:18.735Z,12.31
2023-04-18T19:12:45.841Z,12.32
2023-04-18T19:15:12.979Z,12.60
2023-04-18T19:17:40.365Z,12.59
2023-04-18T19:20:08.949Z,12.66
2023-04-18T19:22:36.151Z,12.72
2023-04-18T19:25:03.653Z,12.67
2023-04-18T19:27:30.676Z,12.66
2023-04-18T19:29:57.674Z,12.59
2023-04-18T19:32:25.084Z,12.62
2023-04-18T19:34:52.092Z,12.51
2023-04-18T19:37:19.152Z,12.44
2023-04-18T19:39:46.477Z,12.40
2023-04-18T19:42:13.598Z,12.50
2023-04-18T19:44:40.691Z,12.51
2023-04-18T19:47:08.099Z,12.75
2023-04-18T19:49:35.214Z,12.65
2023-04-18T19:52:02.228Z,12.87
2023-04-18T19:54:33.354Z,12.85
2023-04-18T19:57:01.223Z,12.80
2023-04-18T19:59:28.422Z,12.81
2023-04-18T20:01:56.734Z,12.70
2023-04-18T20:04:26.005Z,12.60
2023-04-18T20:06:54.036Z,12.64
2023-04-18T20:09:21.138Z,12.58
2023-04-18T20:11:49.008Z,12.51
2023-04-18T20:14:16.062Z,12.52
2023-04-18T20:16:43.095Z,12.55
2023-04-18T20:19:12.658Z,12.59
2023-04-18T20:21:40.301Z,12.75
2023-04-18T20:24:09.697Z,12.72
2023-04-18T20:26:37.165Z,12.72
2023-04-18T20:29:04.384Z,12.76
2023-04-18T20:31:31.383Z,12.91
2023-04-18T20:33:59.100Z,12.98
2023-04-18T20:36:26.221Z,13.05
2023-04-18T20:38:53.253Z,13.03
2023-04-18T20:41:24.227Z,13.03
2023-04-18T20:43:53.726Z,13.04
2023-04-18T20:46:21.066Z,13.02
2023-04-18T20:48:48.155Z,12.94
2023-04-18T20:51:15.841Z,12.97
2023-04-18T20:53:43.154Z,12.91
2023-04-18T20:56:10.182Z,12.94
2023-04-18T20:58:37.174Z,13.00
2023-04-18T21:01:04.538Z,13.06
2023-04-18T21:03:31.654Z,12.98
2023-04-18T21:05:58.724Z,12.98
2023-04-18T21:08:26.043Z,12.91
2023-04-18T21:10:53.119Z,12.89
2023-04-18T21:13:20.142Z,12.76
2023-04-18T21:15:49.321Z,12.66
2023-04-18T21:18:16.335Z,12.65
2023-04-18T21:20:43.370Z,12.62
2023-04-18T21:23:10.776Z,12.54
2023-04-18T21:25:37.766Z,12.45
2023-04-18T21:28:05.360Z,12.40
2023-04-18T21:30:32.665Z,12.50
2023-04-18T21:32:59.696Z,12.71
2023-04-18T21:35:26.782Z,12.83
2023-04-18T21:37:54.144Z,12.71
2023-04-18T21:40:21.258Z,12.69
2023-04-18T21:42:50.973Z,12.62
2023-04-18T21:45:18.419Z,12.58
2023-04-18T21:47:45.598Z,12.64
2023-04-18T21:50:12.654Z,12.54
2023-04-18T21:52:40.000Z,12.58
2023-04-18T21:55:07.286Z,12.50
2023-04-18T21:57:34.333Z,12.35
2023-04-18T22:00:01.759Z,12.31
2023-04-18T22:02:35.888Z,12.32
2023-04-18T22:05:03.444Z,12.24
2023-04-18T22:07:31.089Z,12.16
2023-04-18T22:09:59.762Z,12.06
2023-04-18T22:12:27.206Z,12.15
2023-04-18T22:14:54.685Z,12.16
2023-04-18T22:17:21.951Z,12.08
2023-04-18T22:19:50.463Z,11.91
2023-04-18T22:22:17.557Z,11.84
2023-04-18T22:24:47.392Z,11.82
2023-04-18T22:27:15.320Z,11.77
2023-04-18T22:29:42.406Z,11.67
2023-04-18T22:32:09.525Z,11.64
2023-04-18T22:34:36.897Z,11.62
2023-04-18T22:37:04.009Z,11.57
2023-04-18T22:39:31.224Z,11.55
2023-04-18T22:41:58.689Z,11.52
2023-04-18T22:44:25.768Z,11.51
2023-04-18T22:46:54.744Z,11.51
2023-04-18T22:49:22.336Z,11.61
2023-04-18T22:51:49.662Z,11.48
2023-04-18T22:54:16.872Z,11.50
2023-04-18T22:56:44.342Z,11.50
2023-04-18T22:59:11.630Z,11.51
2023-04-18T23:01:38.823Z,11.54
2023-04-18T23:04:07.116Z,11.50
2023-04-18T23:06:36.692Z,11.44
2023-04-18T23:09:06.566Z,11.48
2023-04-18T23:11:34.029Z,11.51
2023-04-18T23:14:01.270Z,11.51
2023-04-18T23:16:28.929Z,11.53
2023-04-18T23:18:56.351Z,11.67
2023-04-18T23:21:23.501Z,11.65
2023-04-18T23:23:50.612Z,11.58
2023-04-18T23:26:18.149Z,11.53
2023-04-18T23:28:45.427Z,11.60
2023-04-18T23:31:12.719Z,11.63
2023-04-18T23:33:40.261Z,11.73
2023-04-18T23:36:07.874Z,11.70
2023-04-18T23:38:37.203Z,11.65
2023-04-18T23:41:04.636Z,11.61
2023-04-18T23:43:32.063Z,11.67
2023-04-18T23:45:59.187Z,11.70
2023-04-18T23:48:26.564Z,11.72
2023-04-18T23:50:53.741Z,11.74
2023-04-18T23:53:22.620Z,11.88
2023-04-18T23:55:51.114Z,11.84
2023-04-18T23:58:18.388Z,11.83
